Welcome to the New NWS' Forecast!
Most changes are behind the scenes, but click here for differences you might notice.
Latest weather observations around

CATHEDRAL CANYON (EDRC1)

Using English Units (Switch to International System of Units)
Date/ Time (PDT) Wind (mph) Vis. (mi) Weather Sky Cond. Temp (°F) Rel. Humidity Wind Chill (°F) Heat Index (°F) Pressure Precip. (in)
Air Dwpt 6 hour Altimeter (inHg) Sea level (inHg) 1 hr 3 hr 6 hr
Max Min
Aug 15 12:52 E 7   Clear   98 64     33%   101          
Aug 15 11:52 E 7   Clear   97 61     31%   98          
Aug 15 10:52 E 5   Clear   96 62     33%   97          
Aug 15 09:52 ENE 3   Clear   94 61     34%   94          
Aug 15 08:52 ENE 3   Clear   92 59     33%   91          
Aug 15 07:52 ENE 2   Clear   86 58     39%   85          
Aug 15 06:52 Calm   Clear   81 57     44%   81          
Aug 15 05:52 S 2   Clear   80 57     45%   80          
Aug 15 04:52 Calm   Clear   81 57     44%   81          
Aug 15 03:52 Calm   Clear   82 57     42%   82          
Aug 15 02:52 SSE 1   Clear   83 56     40%   82          
Aug 15 01:52 SE 1   Clear   84 55     37%   83          
Aug 15 00:52 SSE 1   Clear   86 57     37%   85          
Aug 14 23:52 ESE 1   Clear   87 57     36%   86          
Aug 14 22:52 ESE 3   Clear   89 57     34%   88          
Aug 14 21:52 ESE 3   Clear   93 56     29%   91          
Aug 14 20:52 NNE 2   Clear   96 56     26%   94          
Aug 14 19:52 NNW 3   Clear   99 53     22%   97          
Aug 14 18:52 NNE 6   Clear   102 50     18%   99          
Aug 14 17:52 ESE 4   Clear   104 55     20%   103          
Aug 14 16:52 ENE 4   Clear   104 59     23%   105          
Aug 14 15:52 ENE 6   Clear   104 56     21%   103          
Aug 14 14:52 ENE 3   Clear   104 55     20%   103          
Aug 14 13:52 ENE 6   Clear   102 53     20%   100          
Aug 14 12:52 E 5   Clear   101 55     22%   100          
Aug 14 11:52 ENE 4   Clear   98 53     22%   96          
Aug 14 10:52 ENE 7   Clear   95 52     24%   92          
Aug 14 09:52 NE 4   Clear   93 52     25%   90          
Aug 14 07:52 E 2   Clear   86 50     29%   84          
Aug 14 06:52 Calm   Clear   82 51     34%   81          
Notice The following observation data may not be complete
Aug 14 05:52     Clear            %              
Aug 14 04:52 ENE 2   Clear   82 52     35%   81          
Aug 14 03:52 SSW 2   Clear   82 51     34%   81          
Aug 14 01:52 S 1   Clear   84 53     34%   82          
Aug 14 00:52 ENE 1   Clear   86 54     33%   84          
Aug 13 23:52 E 2   Clear   87 54     32%   85          
Aug 13 22:52 SSE 1   Clear   90 52     28%   88          
Aug 13 21:52 N 3   Clear   94 52     24%   91          
Aug 13 20:52 NNW 4   Clear   96 52     23%   93          
Aug 13 19:52 NNW 5   Clear   98 54     23%   96          
Aug 13 18:52 N 6   Clear   102 50     18%   99          
Aug 13 17:52 ENE 6   Clear   104 55     20%   103          
Aug 13 16:52 ENE 5   Clear   106 54     18%   104          
Aug 13 15:52 ENE 5   Clear   105 53     18%   103          
Aug 13 14:52 ESE 7   Clear   104 55     20%   103          
Aug 13 12:52 E 6   Clear   101 55     22%   100          
Aug 13 11:52 ENE 6   Clear   99 57     25%   98          
Aug 13 10:52 ENE 3   Clear   97 56     26%   96          
Aug 13 09:52 ENE 3   Clear   93 56     29%   91          
Aug 13 08:52 E 2   Clear   91 56     31%   89          
Aug 13 07:52 SSE 3   Clear   88 56     34%   86          
Aug 13 05:52 W 1   Clear   83 56     40%   82          
Aug 13 04:52 NNE 3   Clear   84 57     40%   83          
Aug 13 00:52 SSW 1   Clear   88 58     36%   87          
Aug 12 23:52 E 1   Clear   90 57     33%   89          
Aug 12 21:52 N 2   Clear   94 58     30%   93          
Aug 12 20:52 NNW 4   Clear   96 58     28%   95          
Aug 12 19:52 NNW 4   Clear   98 58     27%   98          
Aug 12 18:52 N 8   Clear   101 60     26%   102          
Aug 12 16:52 ENE 4   Clear   106 59     22%   107          
Aug 12 12:52 ENE 5   Clear   100 60     27%   101          
May 14 23:52 SSW 2   Clear   73 47     39%   72          
Notice The following observation data may not be complete
May 14 21:52     Clear            %              
Notice The following observation data may not be complete
May 14 16:52     Clear            %              
May 14 06:52 Calm   Clear   66 49     54%              
May 13 11:52     Clear   78 43     29%   77          
May 13 06:52 Calm   Clear   66 45     47%              
Notice The following observation data may not be complete
May 12 10:52     Clear            %              
May 12 04:52 SSE 1   Clear   62 44     51%              
May 12 00:52 NNW 2   Clear   65 45     49%              
May 11 23:52 WNW 1   Clear   66 45     46%              
Notice The following observation data may not be complete
May 11 21:52     Clear            %              
May 11 20:52     Clear   71 43     37%   70          
Notice The following observation data may not be complete
May 11 18:52     Clear            %              
Notice The following observation data may not be complete
May 11 09:52     Clear            %              
Jun 11 20:52 SW 14   Clear   74 38     27%   72          
Jun 11 15:52 NE 6   Clear   86 43     22%   83          
Jun 11 12:52     Clear   82 46     28%   80          
Jun 11 02:52 SSE 3   Clear   68 47     47%              
Jun 09 23:52 SE 2   Clear   79 47     33%   78          
Jun 09 09:52 NNE 3   Clear   89 45     22%   86          
Jun 09 07:52 ESE 1   Clear   82 48     31%   81          
Jun 07 19:52 NNE 2   Clear   93 50     23%   90